Airfield :
LOGIN :

Register | Disclaimer

   EN    FR    IT 

 










Legend :    VFR   Marginal VFR   IFR   Intensive IFR   Very Intensive IFR
Visi :
Ceiling :
>= 8 km
>= 3000ft
5 to 8 km
1000 to 3000 ft
1500m to 5 km
500 to 1000 ft
800 to 1500m
200 to 500 ft
< 800m
< 200 ft
Symbols :   Thunderstorms  Fog  Heavy snow  Heavy precipitations  Wind > 20 kt
SIGMETs :     Misc.  Thunderstorms  Icing  Turbulence  Mountain Waves  Volcanic Ashes







- Airport Elevation : 1470 ft
- IATA code : KLU


LOWK - Klagenfurt

CURRENT METAR :
  • 110650Z VRB02KT 8000 -RA FEW002 SCT040 BKN060 00/M01 Q0999 R10L/29//95 NOSIG

EXPIRED METARs :
  • 110620Z VRB02KT 8000 -RA FEW004 SCT040 BKN055 00/M01 Q0999 R10L/29//95 NOSIG
  • 110550Z 31004KT 8000 -FZRA FEW006 SCT030 OVC050 M00/M01 Q0999 R10L/29//95 BECMG -RA
  • 110520Z 30005KT 8000 -FZRA FEW002 SCT030 OVC045 M00/M01 Q0999 R10L/29//95 BECMG -RA
  • 110450Z 29004KT 8000 -FZRA SCT020 BKN045 M00/M01 Q0999 BECMG -RA
  • 110420Z AUTO 33002KT 7000 -FZRA FEW030 SCT040 BKN046 M01/M02 Q0999

TAF COR TAF LOWK
Valid from the 11 at 06:00 until the 12 at 06:00 UTC


110515Z 1106/1206 VRB02KT 6000 -RA SCT020 BKN040 TX10/1121Z TN03/1106Z
TEMPO 1106/1107 3000 FZRASN BKN008 OVC020
TEMPO 1107/1121 4000 RA
TEMPO 1200/1206 NSW BKN008
No reported NOTAMs for that airfield.
1 SIGMET reported for the Wien FIR (LOVV) :
 
Severe turbulence
LOVV SIGMET 2 VALID 110430/110800 LOWW
LOVV WIEN FIR SEV TURB FCST WI N4735 E00930 - N4810 E01625 - N4645 E01550 - N4620 E01445 - N4655 E00925 - N4735 E00930 SFC/FL120 STNR NC=



MET'MAP, your aeronautical weather chart ! - Copyright ORBIFLY December 2007 - Disclaimer

ORBIFLY MET'MAP TEAM :

Programming & Development : Alexandra Zaïnal
Concept & Development : Baudouin d'Aumeries
Co-Development & Prog : Marc-Olivier Méhu
Technical & hardware support : Manuel Goepfert

Contact : metmap@orbifly.com




SOURCES & CREDITS :

   NOAA